createdAt,value
2019-03-13T00:00:37.497Z,29.6
2019-03-13T00:01:30.511Z,30
2019-03-13T00:02:16.470Z,30.3
2019-03-13T00:03:06.300Z,30.6
2019-03-13T00:03:56.605Z,30.9
2019-03-13T00:04:46.085Z,31.1
2019-03-13T00:05:37.277Z,31.4
2019-03-13T00:06:27.267Z,31.6
2019-03-13T00:07:17.585Z,31.8
2019-03-13T00:08:07.740Z,32
2019-03-13T00:08:57.697Z,32.2
2019-03-13T00:09:48.048Z,32.4
2019-03-13T00:10:40.623Z,32.5
2019-03-13T00:11:27.668Z,32.7
2019-03-13T00:12:17.452Z,32.8
2019-03-13T00:13:08.560Z,32.9
2019-03-13T00:13:57.217Z,33
2019-03-13T00:14:47.334Z,32.9
2019-03-13T00:15:38.022Z,32.1
2019-03-13T00:16:27.680Z,31.9
2019-03-13T00:17:18.047Z,31.7
2019-03-13T00:18:08.099Z,31.6
2019-03-13T00:18:58.419Z,31.4
2019-03-13T00:19:48.229Z,31.3
2019-03-13T00:20:38.017Z,31.1
2019-03-13T00:21:27.881Z,31
2019-03-13T00:22:18.134Z,30.9
2019-03-13T00:23:08.814Z,30.8
2019-03-13T00:23:58.486Z,30.8
2019-03-13T00:24:49.192Z,30.1
2019-03-13T00:25:38.475Z,29.4
2019-03-13T00:26:28.179Z,29
2019-03-13T00:27:18.821Z,28.7
2019-03-13T00:28:09.176Z,28.4
2019-03-13T00:28:58.853Z,28.3
2019-03-13T00:29:48.350Z,28.1
2019-03-13T00:30:38.695Z,28.1
2019-03-13T00:31:28.014Z,27.9
2019-03-13T00:32:18.859Z,27.9
2019-03-13T00:33:09.250Z,27.4
2019-03-13T00:33:59.760Z,27.9
2019-03-13T00:34:49.011Z,28.8
2019-03-13T00:35:39.077Z,29.4
2019-03-13T00:36:29.121Z,29.9
2019-03-13T00:37:19.191Z,30.2
2019-03-13T00:38:09.602Z,30.4
2019-03-13T00:38:59.278Z,30.6
2019-03-13T00:39:49.390Z,30.9
2019-03-13T00:40:40.014Z,31.1
2019-03-13T00:41:29.173Z,31.3
2019-03-13T00:42:19.530Z,31.4
2019-03-13T00:43:10.280Z,31.6
2019-03-13T00:43:59.700Z,31.8
2019-03-13T00:44:49.770Z,32
2019-03-13T00:45:39.820Z,32.1
2019-03-13T00:46:29.825Z,32.3
2019-03-13T00:47:20.167Z,32.4
2019-03-13T00:48:09.530Z,32.5
2019-03-13T00:49:00.870Z,32.6
2019-03-13T00:49:50.875Z,32.8
2019-03-13T00:50:40.697Z,32.8
2019-03-13T00:51:30.575Z,32.9
2019-03-13T00:52:20.641Z,32.6
2019-03-13T00:53:10.405Z,31.9
2019-03-13T00:54:00.070Z,31.8
2019-03-13T00:54:50.133Z,31.6
2019-03-13T00:55:40.805Z,31.4
2019-03-13T00:56:31.092Z,31.3
2019-03-13T00:57:21.152Z,31.1
2019-03-13T00:58:10.977Z,30.9
2019-03-13T00:59:01.572Z,30.9
2019-03-13T00:59:50.777Z,30.8
2019-03-13T01:00:41.740Z,30.7
2019-03-13T01:01:31.240Z,30.6
2019-03-13T01:02:22.074Z,29.9
2019-03-13T01:03:11.049Z,29.3
2019-03-13T01:04:01.369Z,28.9
2019-03-13T01:04:51.441Z,28.6
2019-03-13T01:05:41.764Z,28.4
2019-03-13T01:06:31.829Z,28.2
2019-03-13T01:07:21.340Z,28.1
2019-03-13T01:08:12.207Z,27.9
2019-03-13T01:09:02.188Z,27.9
2019-03-13T01:10:41.484Z,27.4
2019-03-13T01:11:33.899Z,27.6
2019-03-13T01:12:21.206Z,28.5
2019-03-13T01:13:11.538Z,29.1
2019-03-13T01:14:02.374Z,29.8
2019-03-13T01:14:51.274Z,30
2019-03-13T01:15:42.272Z,30.3
2019-03-13T01:16:31.886Z,30.4
2019-03-13T01:17:22.191Z,30.7
2019-03-13T01:18:12.114Z,30.9
2019-03-13T01:19:01.702Z,31.1
2019-03-13T01:19:52.556Z,31.3
2019-03-13T01:20:42.064Z,31.4
2019-03-13T01:21:32.661Z,31.6
2019-03-13T01:22:22.749Z,31.6
2019-03-13T01:23:12.625Z,31.8
2019-03-13T01:24:03.128Z,31.9
2019-03-13T01:24:53.163Z,32
2019-03-13T01:25:41.913Z,32.1
2019-03-13T01:26:33.380Z,32.3
2019-03-13T01:27:22.833Z,32.3
2019-03-13T01:28:13.173Z,32.4
2019-03-13T01:29:03.975Z,32.6
2019-03-13T01:29:53.801Z,32.6
2019-03-13T01:30:43.605Z,32.7
2019-03-13T01:31:33.327Z,32.8
2019-03-13T01:32:23.180Z,32.5
2019-03-13T01:33:13.711Z,31.8
2019-03-13T01:34:03.875Z,31.6
2019-03-13T01:34:52.990Z,31.4
2019-03-13T01:35:43.722Z,31.3
2019-03-13T01:36:33.662Z,31.1
2019-03-13T01:37:24.086Z,30.9
2019-03-13T01:38:13.800Z,30.8
2019-03-13T01:39:04.158Z,30.7
2019-03-13T01:39:53.660Z,30.6
2019-03-13T01:40:44.255Z,30.5
2019-03-13T01:41:34.897Z,30.5
2019-03-13T01:42:24.666Z,30.3
2019-03-13T01:43:14.735Z,29.4
2019-03-13T01:44:05.467Z,28.9
2019-03-13T01:44:54.552Z,28.6
2019-03-13T01:45:44.620Z,28.4
2019-03-13T01:46:34.671Z,28.2
2019-03-13T01:47:24.447Z,28.1
2019-03-13T01:48:15.079Z,27.9
2019-03-13T01:49:54.662Z,27.8
2019-03-13T01:50:43.876Z,27.6
2019-03-13T01:51:35.049Z,27.2
2019-03-13T01:52:24.339Z,27.8
2019-03-13T01:53:14.699Z,28.5
2019-03-13T01:54:05.127Z,29.1
2019-03-13T01:54:54.710Z,29.6
2019-03-13T01:55:45.225Z,29.9
2019-03-13T01:56:35.462Z,30.1
2019-03-13T01:57:25.761Z,30.3
2019-03-13T01:58:15.259Z,30.1
2019-03-13T01:59:06.224Z,29.3
2019-03-13T01:59:55.093Z,28.2
2019-03-13T02:00:45.684Z,27.2
2019-03-13T02:01:35.529Z,26.3
2019-03-13T02:02:25.511Z,25.1
2019-03-13T02:03:14.652Z,23.8
2019-03-13T02:04:05.988Z,23
2019-03-13T02:04:55.209Z,23.3
2019-03-13T02:05:45.348Z,23.7
2019-03-13T02:06:35.633Z,25.1
2019-03-13T02:07:26.266Z,26.2
2019-03-13T02:08:16.255Z,27.1
2019-03-13T02:09:06.357Z,27.9
2019-03-13T02:09:55.858Z,28.8
2019-03-13T02:10:46.749Z,29.3
2019-03-13T02:11:36.448Z,29.7
2019-03-13T02:12:25.713Z,30.1
2019-03-13T02:13:16.868Z,30.3
2019-03-13T02:14:06.453Z,30.6
2019-03-13T02:14:56.641Z,30.9
2019-03-13T02:15:45.166Z,31.1
2019-03-13T02:16:36.562Z,31.4
2019-03-13T02:17:26.880Z,31.6
2019-03-13T02:18:17.090Z,31.8
2019-03-13T02:19:05.630Z,31.9
2019-03-13T02:19:57.101Z,32.1
2019-03-13T02:20:47.205Z,32.3
2019-03-13T02:21:36.620Z,32.4
2019-03-13T02:22:26.420Z,32.5
2019-03-13T02:23:17.308Z,32.6
2019-03-13T02:24:06.888Z,32.8
2019-03-13T02:25:01.473Z,32.9
2019-03-13T02:25:47.007Z,33
2019-03-13T02:26:36.983Z,32.1
2019-03-13T02:27:27.327Z,31.8
2019-03-13T02:28:17.417Z,31.6
2019-03-13T02:29:07.432Z,31.5
2019-03-13T02:29:57.503Z,31.3
2019-03-13T02:30:47.631Z,31.2
2019-03-13T02:31:38.471Z,31
2019-03-13T02:32:28.038Z,30.9
2019-03-13T02:33:18.139Z,30.8
2019-03-13T02:34:08.023Z,30.8
2019-03-13T02:34:58.186Z,30.7
2019-03-13T02:35:48.824Z,30.1
2019-03-13T02:36:38.647Z,29.4
2019-03-13T02:37:29.132Z,28.9
2019-03-13T02:38:18.644Z,28.6
2019-03-13T02:39:08.522Z,28.4
2019-03-13T02:39:57.520Z,28.3
2019-03-13T02:40:48.390Z,28.1
2019-03-13T02:41:38.985Z,28
2019-03-13T02:42:27.439Z,27.9
2019-03-13T02:44:08.446Z,27.7
2019-03-13T02:44:58.464Z,27.3
2019-03-13T02:45:47.999Z,28.2
2019-03-13T02:46:39.090Z,28.9
2019-03-13T02:47:28.661Z,29.6
2019-03-13T02:48:18.209Z,30
2019-03-13T02:49:07.996Z,30.3
2019-03-13T02:49:58.539Z,30.5
2019-03-13T02:50:49.371Z,30.7
2019-03-13T02:51:39.262Z,30.9
2019-03-13T02:52:29.907Z,31.1
2019-03-13T02:53:19.536Z,31.3
2019-03-13T02:54:09.062Z,31.5
2019-03-13T02:54:59.211Z,31.7
2019-03-13T02:55:48.623Z,31.8
2019-03-13T02:56:38.674Z,31.9
2019-03-13T02:57:30.218Z,32.1
2019-03-13T02:58:19.147Z,32.3
2019-03-13T02:59:10.478Z,32.4
2019-03-13T03:00:00.216Z,32.4
2019-03-13T03:00:50.427Z,32.6
2019-03-13T03:01:40.197Z,32.7
2019-03-13T03:02:29.505Z,32.8
2019-03-13T03:03:20.554Z,32.7
2019-03-13T03:04:10.546Z,31.8
2019-03-13T03:07:42.413Z,31.1
2019-03-13T03:08:31.850Z,30.9
2019-03-13T03:09:21.973Z,30.8
2019-03-13T03:10:12.597Z,30.7
2019-03-13T03:11:01.714Z,30.6
2019-03-13T03:11:51.957Z,30.6
2019-03-13T03:12:42.671Z,30.5
2019-03-13T03:13:32.301Z,29.7
2019-03-13T03:14:22.585Z,29.1
2019-03-13T03:15:12.213Z,28.7
2019-03-13T03:16:02.648Z,28.4
2019-03-13T03:16:52.396Z,28.3
2019-03-13T03:17:43.043Z,28.1
2019-03-13T03:18:32.314Z,28
2019-03-13T03:19:22.298Z,27.9
2019-03-13T03:21:02.884Z,27.8
2019-03-13T03:21:52.474Z,27.4
2019-03-13T03:22:42.442Z,27.6
2019-03-13T03:23:32.799Z,28.4
2019-03-13T03:24:23.100Z,29
2019-03-13T03:25:13.512Z,29.6
2019-03-13T03:26:03.269Z,30
2019-03-13T03:26:53.173Z,30.2
2019-03-13T03:27:42.344Z,30.4
2019-03-13T03:28:33.097Z,30.6
2019-03-13T03:29:22.815Z,30.8
2019-03-13T03:30:13.890Z,31
2019-03-13T03:31:03.952Z,31.2
2019-03-13T03:31:53.439Z,31.3
2019-03-13T03:32:44.349Z,31.5
2019-03-13T03:33:34.077Z,31.6
2019-03-13T03:34:24.359Z,31.8
2019-03-13T03:35:13.460Z,31.8
2019-03-13T03:36:03.999Z,31.9
2019-03-13T03:36:53.537Z,32.1
2019-03-13T03:37:44.317Z,32.2
2019-03-13T03:38:34.186Z,32.3
2019-03-13T03:39:23.688Z,32.4
2019-03-13T03:40:14.002Z,32.4
2019-03-13T03:41:03.809Z,32.5
2019-03-13T03:41:54.595Z,32.6
2019-03-13T03:42:43.684Z,32.7
2019-03-13T03:43:48.481Z,32.4
2019-03-13T03:44:24.661Z,31.6
2019-03-13T03:45:14.404Z,31.5
2019-03-13T03:46:04.969Z,31.3
2019-03-13T03:46:54.389Z,31.1
2019-03-13T03:47:44.286Z,31
2019-03-13T03:48:35.071Z,30.8
2019-03-13T03:49:24.429Z,30.8
2019-03-13T03:50:15.019Z,30.6
2019-03-13T03:51:05.322Z,30.6
2019-03-13T03:51:54.789Z,30.5
2019-03-13T03:52:45.207Z,30.4
2019-03-13T03:53:34.977Z,30.1
2019-03-13T03:54:25.252Z,29.4
2019-03-13T03:55:15.158Z,28.9
2019-03-13T03:56:05.535Z,28.6
2019-03-13T03:56:55.499Z,28.3
2019-03-13T03:57:45.789Z,28.2
2019-03-13T03:58:37.776Z,28
2019-03-13T03:59:25.436Z,27.9
2019-03-13T04:01:05.274Z,27.7
2019-03-13T04:01:55.043Z,27.6
2019-03-13T04:02:45.406Z,27.2
2019-03-13T04:04:25.619Z,28.6
2019-03-13T04:05:16.076Z,29.2
2019-03-13T04:06:05.987Z,29.8
2019-03-13T04:06:55.638Z,30.1
2019-03-13T04:07:46.075Z,30.3
2019-03-13T04:08:41.016Z,30.5
2019-03-13T04:09:26.437Z,29.9
2019-03-13T04:10:15.992Z,29.2
2019-03-13T04:11:06.930Z,27.9
2019-03-13T04:11:56.581Z,27.1
2019-03-13T04:12:46.865Z,26.1
2019-03-13T04:13:36.190Z,24.8
2019-03-13T04:14:27.071Z,23.6
2019-03-13T04:15:17.108Z,23.2
2019-03-13T04:16:07.229Z,23.4
2019-03-13T04:16:56.858Z,24.3
2019-03-13T04:17:46.660Z,25.6
2019-03-13T04:18:35.953Z,26.6
2019-03-13T04:19:26.634Z,27.5
2019-03-13T04:20:17.014Z,28.3
2019-03-13T04:21:07.367Z,29.1
2019-03-13T04:21:57.234Z,29.6
2019-03-13T04:22:47.081Z,29.9
2019-03-13T04:23:37.457Z,30.3
2019-03-13T04:24:27.171Z,30.6
2019-03-13T04:25:32.629Z,30.9
2019-03-13T04:26:07.044Z,31.2
2019-03-13T04:26:57.484Z,31.4
2019-03-13T04:27:47.694Z,31.6
2019-03-13T04:28:37.756Z,31.9
2019-03-13T04:29:27.322Z,32.1
2019-03-13T04:30:18.330Z,32.2
2019-03-13T04:31:07.922Z,32.4
2019-03-13T04:31:57.733Z,32.6
2019-03-13T04:32:47.928Z,32.7
2019-03-13T04:33:37.744Z,32.8
2019-03-13T04:34:27.926Z,32.9
2019-03-13T04:35:18.480Z,33
2019-03-13T04:36:08.031Z,32.1
2019-03-13T04:36:57.763Z,31.8
2019-03-13T04:37:48.369Z,31.7
2019-03-13T04:38:38.793Z,31.5
2019-03-13T04:39:28.725Z,31.4
2019-03-13T04:40:18.246Z,31.2
2019-03-13T04:41:08.047Z,31.1
2019-03-13T04:41:58.365Z,31
2019-03-13T04:42:47.908Z,30.9
2019-03-13T04:43:38.683Z,30.9
2019-03-13T04:44:27.914Z,30.8
2019-03-13T04:45:18.620Z,30.6
2019-03-13T04:46:08.173Z,29.8
2019-03-13T04:46:58.403Z,29.3
2019-03-13T04:47:48.435Z,28.8
2019-03-13T04:48:39.010Z,28.6
2019-03-13T04:49:29.121Z,28.3
2019-03-13T04:50:18.657Z,28.2
2019-03-13T04:51:08.657Z,28.1
2019-03-13T04:51:59.075Z,27.9
2019-03-13T04:52:47.874Z,27.9
2019-03-13T04:53:38.636Z,27.8
2019-03-13T04:54:28.743Z,27.3
2019-03-13T04:55:18.262Z,28.2
2019-03-13T04:56:08.667Z,29
2019-03-13T04:56:57.806Z,29.7
2019-03-13T04:57:48.934Z,30.1
2019-03-13T04:58:38.700Z,30.4
2019-03-13T04:59:28.786Z,30.6
2019-03-13T05:00:20.314Z,30.9
2019-03-13T05:01:09.660Z,31.1
2019-03-13T05:01:58.647Z,31.3
2019-03-13T05:02:49.502Z,31.5
2019-03-13T05:03:40.174Z,31.7
2019-03-13T05:04:29.894Z,31.8
2019-03-13T05:05:20.021Z,31.9
2019-03-13T05:06:10.279Z,32.1
2019-03-13T05:06:59.764Z,32.2
2019-03-13T05:07:50.654Z,32.3
2019-03-13T05:08:53.296Z,32.4
2019-03-13T05:09:30.891Z,32.6
2019-03-13T05:10:20.310Z,32.7
2019-03-13T05:11:10.086Z,32.4
2019-03-13T05:12:01.003Z,31.6
2019-03-13T05:12:50.890Z,31.4
2019-03-13T05:13:41.116Z,31.3
2019-03-13T05:14:33.972Z,31.1
2019-03-13T05:15:20.981Z,31
2019-03-13T05:16:10.258Z,30.9
2019-03-13T05:17:01.017Z,30.8
2019-03-13T05:17:51.091Z,30.7
2019-03-13T05:18:40.954Z,30.6
2019-03-13T05:19:31.554Z,30.5
2019-03-13T05:20:21.982Z,30.4
2019-03-13T05:21:11.094Z,29.9
2019-03-13T05:22:00.883Z,29.2
2019-03-13T05:22:51.167Z,28.8
2019-03-13T05:23:41.796Z,28.4
2019-03-13T05:24:31.271Z,28.3
2019-03-13T05:25:24.925Z,28.1
2019-03-13T05:26:11.264Z,28
2019-03-13T05:27:01.711Z,27.9
2019-03-13T05:27:50.984Z,27.9
2019-03-13T05:29:31.689Z,27.4
2019-03-13T05:30:21.971Z,27.7
2019-03-13T05:31:11.636Z,28.6
2019-03-13T05:32:01.284Z,29.4
2019-03-13T05:32:51.867Z,30
2019-03-13T05:33:42.661Z,30.4
2019-03-13T05:34:32.151Z,30.7
2019-03-13T05:35:22.434Z,30.9
2019-03-13T05:36:12.561Z,31.1
2019-03-13T05:37:02.891Z,31.4
2019-03-13T05:37:51.561Z,31.6
2019-03-13T05:38:42.916Z,31.8
2019-03-13T05:39:33.165Z,32.1
2019-03-13T05:40:22.762Z,32.3
2019-03-13T05:41:12.853Z,32.4
2019-03-13T05:42:02.633Z,32.6
2019-03-13T05:42:51.653Z,32.7
2019-03-13T05:43:42.148Z,32.9
2019-03-13T05:44:32.463Z,33
2019-03-13T05:45:22.793Z,33.1
2019-03-13T05:46:12.350Z,33.1
2019-03-13T05:47:03.163Z,32.2
2019-03-13T05:47:53.515Z,31.9
2019-03-13T05:48:43.371Z,31.6
2019-03-13T05:49:33.610Z,31.4
2019-03-13T05:50:23.738Z,31.3
2019-03-13T05:51:13.563Z,31.1
2019-03-13T05:52:03.274Z,30.9
2019-03-13T05:52:53.565Z,30.8
2019-03-13T05:53:43.716Z,30.8
2019-03-13T05:54:33.710Z,30.6
2019-03-13T05:55:23.560Z,30.6
2019-03-13T05:56:13.265Z,30.3
2019-03-13T05:57:04.245Z,29.6
2019-03-13T05:57:53.219Z,29.1
2019-03-13T05:58:43.727Z,28.8
2019-03-13T05:59:34.045Z,28.6
2019-03-13T06:00:23.575Z,28.4
2019-03-13T06:01:14.429Z,28.3
2019-03-13T06:02:04.360Z,28.1
2019-03-13T06:02:55.727Z,28
2019-03-13T06:05:40.914Z,27.4
2019-03-13T06:06:30.964Z,28.1
2019-03-13T06:07:21.344Z,28.9
2019-03-13T06:08:11.376Z,29.7
2019-03-13T06:09:01.061Z,30.3
2019-03-13T06:09:52.059Z,30.6
2019-03-13T06:10:40.937Z,30.9
2019-03-13T06:11:31.579Z,31.1
2019-03-13T06:12:22.166Z,31.3
2019-03-13T06:13:11.451Z,31.6
2019-03-13T06:14:02.136Z,31.8
2019-03-13T06:14:51.841Z,31.9
2019-03-13T06:15:41.899Z,30.9
2019-03-13T06:16:32.471Z,29.7
2019-03-13T06:17:22.563Z,28.5
2019-03-13T06:18:16.275Z,27.6
2019-03-13T06:19:02.374Z,26.3
2019-03-13T06:19:52.099Z,24.9
2019-03-13T06:20:42.588Z,24.2
2019-03-13T06:21:32.518Z,24.3
2019-03-13T06:22:22.068Z,25
2019-03-13T06:23:12.895Z,26.4
2019-03-13T06:24:02.978Z,27.4
2019-03-13T06:24:51.923Z,28.3
2019-03-13T06:25:42.898Z,29.3
2019-03-13T06:26:32.046Z,29.9
2019-03-13T06:27:21.816Z,30.3
2019-03-13T06:28:12.445Z,30.7
2019-03-13T06:29:03.342Z,31.1
2019-03-13T06:29:53.095Z,31.4
2019-03-13T06:30:42.956Z,31.6
2019-03-13T06:31:33.045Z,31.9
2019-03-13T06:32:22.010Z,32.2
2019-03-13T06:33:12.365Z,32.4
2019-03-13T06:34:03.090Z,32.6
2019-03-13T06:34:52.892Z,32.9
2019-03-13T06:35:43.501Z,33.1
2019-03-13T06:36:33.588Z,33.3
2019-03-13T06:37:23.956Z,32.6
2019-03-13T06:38:13.933Z,32.1
2019-03-13T06:39:03.474Z,32.1
2019-03-13T06:39:53.611Z,31.8
2019-03-13T06:40:43.315Z,31.4
2019-03-13T06:41:34.583Z,31.2
2019-03-13T06:42:23.475Z,30.9
2019-03-13T06:43:13.235Z,30.7
2019-03-13T06:44:04.183Z,30.6
2019-03-13T06:44:53.979Z,30.5
2019-03-13T06:45:44.500Z,30.4
2019-03-13T06:46:33.740Z,30.3
2019-03-13T06:47:26.937Z,29.9
2019-03-13T06:48:13.924Z,29.3
2019-03-13T06:49:04.387Z,28.9
2019-03-13T06:49:54.503Z,28.6
2019-03-13T06:50:44.817Z,28.4
2019-03-13T06:51:34.982Z,28.2
2019-03-13T06:52:24.744Z,28.1
2019-03-13T06:53:14.954Z,27.9
2019-03-13T06:54:04.884Z,27.6
2019-03-13T06:54:54.038Z,28.6
2019-03-13T06:55:45.008Z,29.4
2019-03-13T06:56:34.982Z,29.9
2019-03-13T06:57:25.872Z,30.3
2019-03-13T06:58:13.706Z,30.7
2019-03-13T06:59:04.884Z,31.1
2019-03-13T06:59:54.926Z,31.4
2019-03-13T07:00:44.435Z,31.7
2019-03-13T07:01:34.511Z,31.9
2019-03-13T07:02:24.826Z,32.2
2019-03-13T07:03:15.462Z,32.4
2019-03-13T07:05:40.826Z,33
2019-03-13T07:06:30.281Z,33.3
2019-03-13T07:07:21.268Z,32.4
2019-03-13T07:08:10.956Z,32.2
2019-03-13T07:09:01.100Z,32.1
2019-03-13T07:09:52.069Z,31.8
2019-03-13T07:10:40.961Z,31.3
2019-03-13T07:11:32.027Z,30.9
2019-03-13T07:12:22.206Z,30.7
2019-03-13T07:13:11.638Z,30.4
2019-03-13T07:14:01.650Z,30.3
2019-03-13T07:14:52.338Z,30.2
2019-03-13T07:15:43.823Z,30.1
2019-03-13T07:16:32.088Z,29.7
2019-03-13T07:17:22.153Z,29.1
2019-03-13T07:18:11.931Z,28.8
2019-03-13T07:19:02.256Z,28.5
2019-03-13T07:19:52.045Z,28.3
2019-03-13T07:20:42.510Z,28.2
2019-03-13T07:21:32.494Z,28.1
2019-03-13T07:22:22.903Z,28
2019-03-13T07:23:12.300Z,27.9
2019-03-13T07:24:51.655Z,27.8
2019-03-13T07:25:42.176Z,27.7
2019-03-13T07:26:32.570Z,27.6
2019-03-13T07:27:22.847Z,27
2019-03-13T07:28:12.652Z,26.6
2019-03-13T07:29:17.125Z,26.4
2019-03-13T07:29:52.025Z,26.1
2019-03-13T07:30:42.833Z,26.1
2019-03-13T07:31:32.990Z,25.9
2019-03-13T07:32:22.263Z,25.9
2019-03-13T07:33:12.749Z,25.8
2019-03-13T07:34:02.557Z,25.8
2019-03-13T07:34:53.090Z,25.7
2019-03-13T07:35:42.912Z,25.6
2019-03-13T07:36:32.979Z,25.6
2019-03-13T07:37:23.857Z,25.3
2019-03-13T07:38:16.193Z,25.1
2019-03-13T07:39:03.689Z,24.9
2019-03-13T07:39:52.711Z,24.8
2019-03-13T07:40:44.129Z,24.7
2019-03-13T07:41:37.112Z,24.6
2019-03-13T07:42:23.996Z,24.6
2019-03-13T07:43:13.730Z,24.5
2019-03-13T07:44:03.860Z,24.4
2019-03-13T07:44:53.103Z,24.4
2019-03-13T07:45:44.444Z,24.4
2019-03-13T07:46:34.233Z,24.4
2019-03-13T07:47:23.816Z,24.3
2019-03-13T07:48:14.356Z,24.1
2019-03-13T07:49:03.581Z,24
2019-03-13T07:49:54.731Z,23.9
2019-03-13T07:50:44.375Z,23.9
2019-03-13T07:51:33.741Z,23.8
2019-03-13T07:52:25.208Z,23.8
2019-03-13T07:53:14.547Z,23.8
2019-03-13T07:54:04.746Z,23.8
2019-03-13T07:54:54.889Z,23.7
2019-03-13T07:55:44.335Z,23.7
2019-03-13T07:56:34.418Z,23.6
2019-03-13T07:57:25.296Z,23.6
2019-03-13T07:58:15.160Z,23.6
2019-03-13T07:59:05.416Z,23.6
2019-03-13T07:59:55.203Z,23.6
2019-03-13T08:00:44.429Z,23.5
2019-03-13T08:01:35.348Z,23.9
2019-03-13T08:02:24.592Z,25.4
2019-03-13T08:03:15.703Z,26.5
2019-03-13T08:04:09.528Z,27.5
2019-03-13T08:04:55.623Z,28.3
2019-03-13T08:05:45.618Z,28.8
2019-03-13T08:06:35.413Z,29.3
2019-03-13T08:07:25.478Z,29.8
2019-03-13T08:08:15.243Z,30.2
2019-03-13T08:09:05.260Z,30.6
2019-03-13T08:09:55.640Z,30.9
2019-03-13T08:10:46.052Z,30.3
2019-03-13T08:11:36.050Z,30.2
2019-03-13T08:12:25.550Z,30.3
2019-03-13T08:13:16.190Z,30.1
2019-03-13T08:14:06.057Z,30.1
2019-03-13T08:14:55.717Z,30
2019-03-13T08:15:46.909Z,29.9
2019-03-13T08:16:35.834Z,29.8
2019-03-13T08:17:25.634Z,29.8
2019-03-13T08:18:16.889Z,29.7
2019-03-13T08:19:06.347Z,29.6
2019-03-13T08:19:56.616Z,29.6
2019-03-13T08:20:46.705Z,29.5
2019-03-13T08:21:37.632Z,29.4
2019-03-13T08:22:26.811Z,29.4
2019-03-13T08:23:16.554Z,29.3
2019-03-13T08:24:07.277Z,29.3
2019-03-13T08:24:56.665Z,29.2
2019-03-13T08:25:47.575Z,29.1
2019-03-13T08:26:36.579Z,29.1
2019-03-13T08:27:27.505Z,29
2019-03-13T08:28:16.669Z,28.9
2019-03-13T08:29:07.826Z,28.8
2019-03-13T08:29:56.832Z,28.8
2019-03-13T08:30:47.563Z,28.7
2019-03-13T08:31:37.459Z,28.6
2019-03-13T08:32:27.244Z,28.5
2019-03-13T08:33:17.126Z,28.4
2019-03-13T08:34:07.389Z,28.3
2019-03-13T08:34:57.919Z,28.3
2019-03-13T08:35:47.461Z,28.1
2019-03-13T08:36:40.242Z,28.1
2019-03-13T08:37:28.249Z,28
2019-03-13T08:38:17.411Z,27.9
2019-03-13T08:39:57.467Z,27.7
2019-03-13T08:40:46.996Z,27.6
2019-03-13T08:41:37.633Z,26.9
2019-03-13T08:42:27.990Z,27.3
2019-03-13T08:43:18.035Z,28
2019-03-13T08:44:08.340Z,28.8
2019-03-13T08:44:57.868Z,29.2
2019-03-13T08:45:48.719Z,29.6
2019-03-13T08:46:38.533Z,30
2019-03-13T08:47:28.055Z,30.3
2019-03-13T08:48:18.620Z,30.6
2019-03-13T08:49:08.025Z,30.9
2019-03-13T08:49:59.353Z,31.2
2019-03-13T08:50:48.648Z,30.6
2019-03-13T08:51:39.263Z,30.4
2019-03-13T08:52:29.330Z,30.3
2019-03-13T08:53:18.718Z,30.3
2019-03-13T08:54:09.169Z,30.1
2019-03-13T08:54:59.387Z,30.1
2019-03-13T08:55:49.147Z,29.9
2019-03-13T08:56:38.750Z,29.9
2019-03-13T08:57:29.068Z,29.8
2019-03-13T08:58:18.885Z,29.7
2019-03-13T08:59:09.155Z,29.6
2019-03-13T08:59:58.135Z,29.6
2019-03-13T09:00:49.259Z,29.5
2019-03-13T09:01:39.847Z,29.5
2019-03-13T09:02:29.694Z,29.4
2019-03-13T09:03:19.714Z,29.3
2019-03-13T09:04:10.417Z,29.3
2019-03-13T09:04:58.737Z,29.3
2019-03-13T09:05:48.592Z,29.2
2019-03-13T09:06:39.656Z,29.1
2019-03-13T09:07:29.126Z,29
2019-03-13T09:08:20.354Z,28.9
2019-03-13T09:09:09.389Z,28.9
2019-03-13T09:10:00.400Z,28.8
2019-03-13T09:10:50.517Z,28.8
2019-03-13T09:11:40.334Z,28.6
2019-03-13T09:12:30.901Z,28.6
2019-03-13T09:13:19.876Z,28.5
2019-03-13T09:14:10.481Z,28.4
2019-03-13T09:14:59.486Z,28.3
2019-03-13T09:15:50.573Z,28.3
2019-03-13T09:16:39.596Z,28.1
2019-03-13T09:17:30.501Z,28.1
2019-03-13T09:18:20.553Z,28
2019-03-13T09:19:10.989Z,27.9
2019-03-13T09:20:01.366Z,27.8
2019-03-13T09:20:50.838Z,27.6
2019-03-13T09:21:41.416Z,27.1
2019-03-13T09:22:31.396Z,27.2
2019-03-13T09:23:21.694Z,27.9
2019-03-13T09:24:10.938Z,28.7
2019-03-13T09:25:15.633Z,29.2
2019-03-13T09:25:50.200Z,29.7
2019-03-13T09:26:41.344Z,29.9
2019-03-13T09:27:30.101Z,30.3
2019-03-13T09:28:21.473Z,30.6
2019-03-13T09:29:11.048Z,30.9
2019-03-13T09:30:01.376Z,31.3
2019-03-13T09:30:51.520Z,31
2019-03-13T09:31:42.008Z,30.5
2019-03-13T09:32:32.017Z,30.6
2019-03-13T09:33:22.145Z,30.5
2019-03-13T09:34:10.793Z,30.4
2019-03-13T09:35:01.445Z,30.3
2019-03-13T09:35:52.288Z,30.2
2019-03-13T09:36:41.532Z,30.1
2019-03-13T09:37:31.584Z,30
2019-03-13T09:38:21.477Z,29.9
2019-03-13T09:39:12.277Z,29.8
2019-03-13T09:40:02.395Z,29.8
2019-03-13T09:40:52.625Z,29.7
2019-03-13T09:41:42.510Z,29.7
2019-03-13T09:42:32.060Z,29.6
2019-03-13T09:43:22.673Z,29.5
2019-03-13T09:44:12.690Z,29.5
2019-03-13T09:45:02.706Z,29.4
2019-03-13T09:45:53.108Z,29.3
2019-03-13T09:46:42.294Z,29.3
2019-03-13T09:47:32.557Z,29.2
2019-03-13T09:48:22.127Z,29.1
2019-03-13T09:49:16.334Z,29.1
2019-03-13T09:50:03.247Z,29
2019-03-13T09:50:52.684Z,28.9
2019-03-13T09:51:42.362Z,28.8
2019-03-13T09:52:33.304Z,28.7
2019-03-13T09:53:22.726Z,28.6
2019-03-13T09:54:13.122Z,28.6
2019-03-13T09:55:06.848Z,28.4
2019-03-13T09:55:52.616Z,28.4
2019-03-13T09:56:42.757Z,28.3
2019-03-13T09:57:33.292Z,28.2
2019-03-13T09:58:23.339Z,28.1
2019-03-13T09:59:13.219Z,28
2019-03-13T10:00:03.490Z,27.9
2019-03-13T10:01:44.176Z,27.6
2019-03-13T10:02:32.879Z,27
2019-03-13T10:04:13.524Z,28.6
2019-03-13T10:06:40.651Z,30
2019-03-13T10:07:30.542Z,30.4
2019-03-13T10:08:20.874Z,30.8
2019-03-13T10:09:11.448Z,31.2
2019-03-13T10:10:01.488Z,31.6
2019-03-13T10:10:51.503Z,31.4
2019-03-13T10:11:41.251Z,30.8
2019-03-13T10:12:31.343Z,30.8
2019-03-13T10:13:21.200Z,30.8
2019-03-13T10:14:11.453Z,30.6
2019-03-13T10:15:02.029Z,30.6
2019-03-13T10:15:51.591Z,30.4
2019-03-13T10:16:42.185Z,30.3
2019-03-13T10:17:32.066Z,30.2
2019-03-13T10:18:21.463Z,30.1
2019-03-13T10:19:11.591Z,30
2019-03-13T10:20:02.183Z,30
2019-03-13T10:20:51.945Z,29.9
2019-03-13T10:21:41.965Z,29.8
2019-03-13T10:22:32.846Z,29.8
2019-03-13T10:23:20.522Z,29.8
2019-03-13T10:24:12.440Z,29.7
2019-03-13T10:25:03.007Z,29.6
2019-03-13T10:25:55.865Z,29.6
2019-03-13T10:26:42.917Z,29.5
2019-03-13T10:27:31.830Z,29.4
2019-03-13T10:28:23.005Z,29.3
2019-03-13T10:29:12.863Z,29.2
2019-03-13T10:30:02.765Z,29.1
2019-03-13T10:30:52.625Z,29
2019-03-13T10:31:57.452Z,28.9
2019-03-13T10:32:33.590Z,28.9
2019-03-13T10:33:23.407Z,28.8
2019-03-13T10:34:12.577Z,28.7
2019-03-13T10:35:03.542Z,28.6
2019-03-13T10:35:53.064Z,28.5
2019-03-13T10:36:43.597Z,28.4
2019-03-13T10:37:33.362Z,28.3
2019-03-13T10:38:23.831Z,28.2
2019-03-13T10:39:13.221Z,28.1
2019-03-13T10:40:03.900Z,28
2019-03-13T10:40:53.049Z,27.9
2019-03-13T10:41:43.689Z,27.8
2019-03-13T10:42:33.664Z,27.1
2019-03-13T10:43:23.826Z,27.9
2019-03-13T10:44:13.873Z,28.7
2019-03-13T10:45:03.929Z,29.3
2019-03-13T10:45:54.267Z,29.8
2019-03-13T10:46:44.174Z,30.2
2019-03-13T10:47:34.201Z,30.6
2019-03-13T10:48:24.201Z,30.9
2019-03-13T10:49:13.810Z,31.3
2019-03-13T10:50:04.308Z,31.7
2019-03-13T10:50:54.063Z,31.4
2019-03-13T10:51:44.176Z,30.8
2019-03-13T10:52:34.174Z,30.8
2019-03-13T10:53:24.846Z,30.8
2019-03-13T10:54:14.003Z,30.6
2019-03-13T10:55:04.745Z,30.5
2019-03-13T10:55:57.395Z,30.4
2019-03-13T10:56:44.011Z,30.3
2019-03-13T10:57:34.543Z,30.2
2019-03-13T10:58:25.143Z,30.1
2019-03-13T10:59:14.368Z,30.1
2019-03-13T11:00:05.371Z,29.9
2019-03-13T11:00:55.246Z,29.9
2019-03-13T11:01:44.550Z,29.9
2019-03-13T11:02:34.620Z,29.8
2019-03-13T11:03:25.286Z,29.8
2019-03-13T11:04:15.087Z,29.7
2019-03-13T11:05:04.749Z,29.7
2019-03-13T11:05:54.625Z,29.6
2019-03-13T11:06:58.580Z,29.6
2019-03-13T11:07:36.635Z,29.4
2019-03-13T11:08:25.623Z,29.4
2019-03-13T11:09:16.195Z,29.3
2019-03-13T11:10:05.622Z,29.2
2019-03-13T11:10:54.751Z,29.1
2019-03-13T11:11:45.279Z,29
2019-03-13T11:12:35.338Z,28.9
2019-03-13T11:13:26.005Z,28.8
2019-03-13T11:14:23.416Z,28.7
2019-03-13T11:15:06.465Z,28.6
2019-03-13T11:15:56.118Z,28.5
2019-03-13T11:16:46.014Z,28.4
2019-03-13T11:17:36.544Z,28.3
2019-03-13T11:18:25.347Z,28.3
2019-03-13T11:19:15.550Z,28.1
2019-03-13T11:20:06.429Z,28.1
2019-03-13T11:20:56.204Z,27.9
2019-03-13T11:22:36.589Z,27.4
2019-03-13T11:23:26.132Z,27.3
2019-03-13T11:24:16.244Z,28.1
2019-03-13T11:25:07.037Z,28.9
2019-03-13T11:25:56.657Z,29.6
2019-03-13T11:26:46.957Z,30